createdAt,value
2022-09-25T00:00:24.124Z,16.93
2022-09-25T00:03:32.431Z,14.40
2022-09-25T00:06:38.056Z,13.40
2022-09-25T00:09:44.532Z,13.57
2022-09-25T00:12:52.834Z,13.87
2022-09-25T00:16:00.317Z,13.40
2022-09-25T00:19:22.912Z,12.73
2022-09-25T00:22:30.426Z,12.03
2022-09-25T00:25:36.877Z,11.67
2022-09-25T00:28:46.457Z,12.20
2022-09-25T00:31:52.155Z,10.03
2022-09-25T00:34:58.546Z,10.10
2022-09-25T00:38:04.106Z,8.80
2022-09-25T00:41:11.292Z,7.40
2022-09-25T00:44:51.194Z,6.73
2022-09-25T00:48:03.904Z,6.10
2022-09-25T00:51:09.482Z,6.00
2022-09-25T00:54:19.382Z,7.07
2022-09-25T00:57:30.202Z,5.47
2022-09-25T01:00:37.255Z,6.10
2022-09-25T01:03:47.483Z,6.27
2022-09-25T01:06:54.134Z,5.87
2022-09-25T01:10:03.019Z,5.80
2022-09-25T01:13:10.035Z,5.77
2022-09-25T01:16:20.163Z,5.63
2022-09-25T01:19:52.797Z,5.37
2022-09-25T01:23:17.283Z,5.40
2022-09-25T01:26:47.284Z,5.33
2022-09-25T01:30:02.557Z,4.87
2022-09-25T01:33:18.384Z,5.17
2022-09-25T01:36:32.341Z,5.70
2022-09-25T01:39:48.511Z,5.63
2022-09-25T01:43:01.160Z,5.30
2022-09-25T01:46:15.294Z,5.13
2022-09-25T01:49:26.101Z,4.67
2022-09-25T01:52:38.328Z,5.10
2022-09-25T01:55:49.238Z,5.43
2022-09-25T01:59:02.836Z,5.33
2022-09-25T02:02:16.874Z,5.30
2022-09-25T02:05:28.518Z,5.83
2022-09-25T02:08:39.815Z,5.60
2022-09-25T02:11:52.342Z,4.97
2022-09-25T02:15:02.941Z,5.07
2022-09-25T02:18:33.513Z,5.17
2022-09-25T02:21:50.738Z,5.10
2022-09-25T02:25:00.882Z,5.43
2022-09-25T02:28:11.683Z,5.30
2022-09-25T02:31:21.191Z,5.10
2022-09-25T02:34:32.618Z,6.07
2022-09-25T02:37:39.971Z,5.33
2022-09-25T02:40:51.825Z,4.80
2022-09-25T02:44:14.922Z,4.57
2022-09-25T02:47:32.665Z,4.80
2022-09-25T02:50:48.909Z,4.97
2022-09-25T02:53:59.788Z,5.20
2022-09-25T02:57:12.415Z,4.53
2022-09-25T03:00:19.839Z,4.90
2022-09-25T03:03:33.038Z,4.97
2022-09-25T03:06:43.267Z,4.97
2022-09-25T03:09:53.524Z,4.93
2022-09-25T03:12:59.062Z,5.53
2022-09-25T03:16:10.202Z,6.57
2022-09-25T03:19:16.758Z,6.40
2022-09-25T03:22:25.998Z,6.33
2022-09-25T03:25:31.572Z,6.30
2022-09-25T03:28:38.395Z,6.93
2022-09-25T03:31:45.725Z,6.87
2022-09-25T03:34:55.215Z,7.00
2022-09-25T03:38:03.807Z,7.30
2022-09-25T03:41:11.871Z,7.30
2022-09-25T03:44:17.535Z,7.93
2022-09-25T03:47:24.194Z,8.17
2022-09-25T03:50:30.010Z,6.80
2022-09-25T03:53:40.416Z,6.13
2022-09-25T03:56:45.951Z,6.60
2022-09-25T03:59:52.330Z,6.03
2022-09-25T04:02:59.771Z,5.30
2022-09-25T04:06:08.490Z,6.07
2022-09-25T04:09:17.036Z,5.40
2022-09-25T04:12:23.432Z,5.83
2022-09-25T04:15:28.994Z,5.40
2022-09-25T04:18:36.197Z,5.60
2022-09-25T04:21:42.195Z,5.87
2022-09-25T04:24:51.459Z,4.97
2022-09-25T04:27:58.538Z,5.30
2022-09-25T04:31:06.490Z,5.53
2022-09-25T04:34:09.524Z,5.27
2022-09-25T04:37:17.164Z,5.23
2022-09-25T04:40:25.526Z,4.60
2022-09-25T04:43:32.569Z,5.00
2022-09-25T04:46:38.627Z,5.40
2022-09-25T04:49:45.067Z,5.23
2022-09-25T04:52:51.608Z,4.43
2022-09-25T04:56:04.527Z,4.90
2022-09-25T04:59:11.964Z,5.30
2022-09-25T05:02:18.457Z,5.57
2022-09-25T05:05:27.547Z,5.13
2022-09-25T05:08:33.964Z,5.90
2022-09-25T05:11:42.582Z,6.00
2022-09-25T05:14:49.247Z,6.23
2022-09-25T05:18:02.888Z,6.47
2022-09-25T05:21:09.677Z,6.70
2022-09-25T05:24:15.273Z,6.03
2022-09-25T05:27:24.508Z,5.73
2022-09-25T05:30:32.206Z,6.07
2022-09-25T05:33:38.947Z,5.50
2022-09-25T05:36:44.748Z,5.40
2022-09-25T05:39:51.341Z,5.40
2022-09-25T05:43:03.642Z,5.70
2022-09-25T05:46:10.899Z,4.93
2022-09-25T05:49:16.568Z,5.67
2022-09-25T05:52:22.988Z,5.77
2022-09-25T05:55:29.196Z,5.10
2022-09-25T05:58:38.946Z,6.13
2022-09-25T06:01:44.814Z,6.20
2022-09-25T06:04:51.253Z,6.10
2022-09-25T06:07:57.390Z,6.93
2022-09-25T06:11:04.358Z,7.67
2022-09-25T06:14:13.852Z,7.60
2022-09-25T06:17:20.418Z,6.83
2022-09-25T06:20:26.498Z,6.90
2022-09-25T06:23:33.403Z,7.97
2022-09-25T06:26:39.143Z,7.47
2022-09-25T06:29:48.379Z,8.63
2022-09-25T06:33:00.134Z,7.47
2022-09-25T06:36:09.190Z,8.37
2022-09-25T06:39:14.994Z,7.90
2022-09-25T06:42:21.520Z,7.70
2022-09-25T06:45:32.652Z,8.27
2022-09-25T06:48:39.663Z,8.90
2022-09-25T06:51:45.252Z,7.40
2022-09-25T06:54:51.664Z,8.33
2022-09-25T06:57:59.057Z,8.30
2022-09-25T07:01:11.985Z,7.30
2022-09-25T07:04:15.280Z,6.90
2022-09-25T07:07:24.408Z,7.43
2022-09-25T07:10:30.283Z,7.13
2022-09-25T07:13:39.419Z,6.17
2022-09-25T07:16:50.908Z,5.80
2022-09-25T07:19:57.662Z,5.80
2022-09-25T07:23:04.155Z,6.30
2022-09-25T07:26:12.370Z,5.07
2022-09-25T07:29:18.743Z,5.63
2022-09-25T07:32:27.966Z,4.83
2022-09-25T07:35:33.754Z,4.90
2022-09-25T07:38:40.183Z,4.23
2022-09-25T07:41:45.741Z,4.43
2022-09-25T07:44:52.624Z,4.60
2022-09-25T07:48:03.751Z,4.57
2022-09-25T07:51:11.974Z,4.87
2022-09-25T07:54:17.563Z,4.73
2022-09-25T07:57:23.975Z,4.63
2022-09-25T08:00:29.788Z,4.97
2022-09-25T08:03:40.550Z,5.03
2022-09-25T08:06:46.364Z,5.07
2022-09-25T08:09:52.840Z,4.73
2022-09-25T08:12:58.493Z,4.53
2022-09-25T08:16:06.786Z,4.87
2022-09-25T08:19:18.158Z,4.80
2022-09-25T08:22:24.594Z,4.63
2022-09-25T08:25:30.113Z,5.00
2022-09-25T08:28:37.110Z,5.13
2022-09-25T08:31:42.648Z,5.13
2022-09-25T08:34:52.005Z,5.00
2022-09-25T08:37:57.533Z,4.90
2022-09-25T08:41:08.509Z,4.87
2022-09-25T08:44:23.435Z,5.07
2022-09-25T08:47:47.226Z,4.57
2022-09-25T08:50:55.569Z,4.60
2022-09-25T08:54:03.321Z,4.50
2022-09-25T08:57:18.273Z,4.23
2022-09-25T09:00:27.234Z,4.10
2022-09-25T09:03:35.970Z,5.07
2022-09-25T09:06:49.802Z,4.43
2022-09-25T09:10:09.800Z,4.90
2022-09-25T09:13:24.979Z,3.80
2022-09-25T09:16:36.531Z,4.07
2022-09-25T09:19:47.344Z,4.23
2022-09-25T09:22:55.742Z,4.70
2022-09-25T09:26:05.800Z,4.07
2022-09-25T09:29:30.599Z,4.40
2022-09-25T09:33:09.413Z,4.23
2022-09-25T09:36:22.970Z,4.90
2022-09-25T09:39:41.816Z,3.97
2022-09-25T09:42:53.855Z,4.43
2022-09-25T09:46:07.288Z,4.43
2022-09-25T09:49:19.297Z,4.53
2022-09-25T09:52:28.864Z,4.40
2022-09-25T09:55:44.068Z,4.47
2022-09-25T09:58:54.502Z,4.80
2022-09-25T10:02:05.962Z,4.57
2022-09-25T10:05:21.682Z,4.40
2022-09-25T10:08:27.489Z,4.53
2022-09-25T10:11:37.833Z,4.70
2022-09-25T10:14:48.556Z,4.53
2022-09-25T10:17:57.124Z,4.60
2022-09-25T10:21:09.026Z,4.07
2022-09-25T10:24:53.497Z,4.73
2022-09-25T10:27:59.708Z,4.57
2022-09-25T10:31:09.174Z,3.90
2022-09-25T10:34:24.553Z,4.97
2022-09-25T10:37:37.785Z,3.93
2022-09-25T10:40:46.857Z,4.37
2022-09-25T10:43:55.943Z,3.90
2022-09-25T10:47:48.871Z,4.03
2022-09-25T10:51:10.192Z,4.23
2022-09-25T10:54:18.612Z,4.00
2022-09-25T10:57:38.549Z,3.67
2022-09-25T11:00:55.231Z,3.73
2022-09-25T11:04:02.821Z,3.80
2022-09-25T11:07:18.522Z,3.27
2022-09-25T11:10:27.148Z,3.70
2022-09-25T11:13:43.255Z,3.43
2022-09-25T11:16:53.481Z,3.83
2022-09-25T11:20:27.864Z,3.93
2022-09-25T11:23:42.138Z,3.93
2022-09-25T11:26:53.504Z,4.27
2022-09-25T11:30:07.048Z,4.47
2022-09-25T11:33:23.642Z,4.40
2022-09-25T11:36:35.793Z,3.90
2022-09-25T11:40:03.255Z,4.00
2022-09-25T11:43:12.504Z,3.93
2022-09-25T11:46:27.098Z,3.87
2022-09-25T11:49:36.254Z,3.90
2022-09-25T11:52:44.575Z,3.47
2022-09-25T11:56:06.815Z,3.27
2022-09-25T11:59:31.182Z,3.40
2022-09-25T12:02:57.066Z,3.50
2022-09-25T12:06:30.314Z,3.20
2022-09-25T12:09:54.549Z,3.10
2022-09-25T12:13:08.118Z,2.47
2022-09-25T12:16:22.754Z,3.00
2022-09-25T12:19:40.725Z,3.00
2022-09-25T12:22:56.005Z,2.60
2022-09-25T12:26:18.873Z,3.10
2022-09-25T12:29:40.887Z,2.70
2022-09-25T12:33:07.539Z,2.73
2022-09-25T12:36:22.700Z,2.80
2022-09-25T12:39:37.353Z,2.93
2022-09-25T12:42:51.028Z,2.93
2022-09-25T12:46:02.931Z,3.37
2022-09-25T12:49:16.899Z,3.63
2022-09-25T12:52:29.562Z,4.17
2022-09-25T12:55:42.070Z,3.67
2022-09-25T12:58:54.597Z,3.57
2022-09-25T13:02:08.270Z,4.00
2022-09-25T13:05:22.128Z,3.70
2022-09-25T13:08:41.875Z,3.80
2022-09-25T13:11:53.327Z,4.30
2022-09-25T13:15:04.443Z,4.33
2022-09-25T13:18:28.157Z,3.07
2022-09-25T13:21:38.678Z,3.17
2022-09-25T13:24:52.679Z,2.87
2022-09-25T13:28:08.436Z,3.37
2022-09-25T13:31:17.002Z,3.10
2022-09-25T13:34:26.704Z,2.90
2022-09-25T13:37:35.624Z,2.83
2022-09-25T13:40:49.637Z,3.63
2022-09-25T13:44:28.692Z,3.43
2022-09-25T13:48:07.279Z,3.10
2022-09-25T13:51:37.666Z,3.20
2022-09-25T13:54:44.224Z,2.93
2022-09-25T13:58:07.607Z,3.13
2022-09-25T14:01:32.616Z,3.23
2022-09-25T14:04:40.293Z,3.23
2022-09-25T14:07:47.921Z,3.60
2022-09-25T14:10:57.486Z,2.97
2022-09-25T14:14:11.602Z,3.40
2022-09-25T14:17:19.165Z,3.13
2022-09-25T14:20:35.444Z,3.03
2022-09-25T14:23:56.378Z,3.60
2022-09-25T14:27:22.802Z,3.03
2022-09-25T14:30:33.077Z,3.20
2022-09-25T14:34:05.866Z,3.33
2022-09-25T14:37:29.451Z,2.93
2022-09-25T14:40:40.525Z,3.10
2022-09-25T14:44:10.134Z,2.90
2022-09-25T14:47:21.769Z,3.33
2022-09-25T14:50:31.988Z,3.43
2022-09-25T14:53:42.730Z,3.17
2022-09-25T14:56:51.742Z,3.57
2022-09-25T15:00:01.198Z,3.37
2022-09-25T15:03:16.535Z,3.37
2022-09-25T15:06:31.820Z,3.27
2022-09-25T15:09:47.325Z,3.73
2022-09-25T15:12:55.530Z,3.60
2022-09-25T15:16:29.110Z,3.70
2022-09-25T15:19:44.957Z,3.67
2022-09-25T15:22:55.950Z,3.60
2022-09-25T15:26:02.573Z,3.83
2022-09-25T15:29:18.554Z,3.83
2022-09-25T15:32:28.629Z,3.70
2022-09-25T15:35:38.455Z,3.37
2022-09-25T15:38:45.460Z,3.63
2022-09-25T15:41:51.361Z,3.37
2022-09-25T15:45:03.320Z,3.47
2022-09-25T15:48:24.384Z,3.60
2022-09-25T15:51:36.485Z,3.33
2022-09-25T15:54:49.284Z,3.90
2022-09-25T15:57:58.182Z,3.13
2022-09-25T16:01:22.511Z,3.57
2022-09-25T16:04:44.092Z,3.57
2022-09-25T16:07:52.622Z,3.60
2022-09-25T16:11:07.971Z,3.37
2022-09-25T16:14:23.237Z,3.60
2022-09-25T16:17:36.501Z,3.93
2022-09-25T16:20:44.611Z,3.67
2022-09-25T16:24:00.010Z,3.57
2022-09-25T16:27:08.336Z,3.73
2022-09-25T16:30:20.070Z,3.80
2022-09-25T16:33:31.329Z,4.00
2022-09-25T16:36:43.810Z,3.90
2022-09-25T16:40:11.799Z,4.17
2022-09-25T16:43:29.075Z,3.90
2022-09-25T16:46:34.823Z,4.20
2022-09-25T16:49:43.723Z,4.50
2022-09-25T16:52:49.928Z,4.37
2022-09-25T16:55:59.312Z,4.03
2022-09-25T16:59:13.896Z,5.13
2022-09-25T17:02:33.862Z,5.63
2022-09-25T17:05:39.564Z,5.83
2022-09-25T17:08:47.195Z,5.80
2022-09-25T17:12:03.401Z,5.53
2022-09-25T17:15:16.374Z,5.47
2022-09-25T17:18:24.267Z,6.53
2022-09-25T17:21:30.828Z,5.47
2022-09-25T17:24:36.664Z,5.70
2022-09-25T17:27:45.891Z,5.73
2022-09-25T17:30:51.548Z,5.93
2022-09-25T17:33:58.109Z,5.83
2022-09-25T17:37:03.760Z,6.03
2022-09-25T17:40:10.818Z,6.10
2022-09-25T17:43:19.884Z,6.80
2022-09-25T17:46:26.765Z,5.73
2022-09-25T17:49:32.578Z,5.50
2022-09-25T17:52:39.579Z,5.93
2022-09-25T17:55:51.305Z,5.77
2022-09-25T17:59:03.478Z,5.30
2022-09-25T18:02:17.153Z,6.53
2022-09-25T18:05:26.044Z,5.70
2022-09-25T18:08:31.589Z,6.00
2022-09-25T18:11:42.504Z,5.30
2022-09-25T18:14:50.992Z,5.50
2022-09-25T18:17:57.994Z,5.67
2022-09-25T18:21:19.179Z,5.80
2022-09-25T18:24:25.662Z,6.03
2022-09-25T18:27:33.435Z,6.23
2022-09-25T18:30:42.714Z,5.90
2022-09-25T18:33:48.392Z,5.70
2022-09-25T18:36:57.491Z,6.17
2022-09-25T18:40:03.383Z,5.60
2022-09-25T18:43:10.186Z,5.43
2022-09-25T18:46:18.729Z,5.53
2022-09-25T18:49:26.579Z,5.60
2022-09-25T18:52:32.597Z,6.73
2022-09-25T18:55:41.365Z,6.30
2022-09-25T18:58:47.612Z,7.33
2022-09-25T19:01:57.938Z,6.47
2022-09-25T19:05:03.764Z,6.77
2022-09-25T19:08:10.405Z,6.80
2022-09-25T19:11:17.153Z,6.93
2022-09-25T19:14:24.257Z,6.30
2022-09-25T19:17:32.613Z,6.40
2022-09-25T19:20:39.060Z,6.63
2022-09-25T19:23:48.548Z,6.40
2022-09-25T19:26:55.192Z,6.27
2022-09-25T19:30:00.753Z,6.40
2022-09-25T19:33:10.370Z,6.87
2022-09-25T19:36:19.529Z,7.27
2022-09-25T19:39:26.135Z,7.33
2022-09-25T19:42:37.555Z,7.60
2022-09-25T19:45:52.059Z,7.73
2022-09-25T19:49:01.074Z,7.90
2022-09-25T19:52:08.444Z,6.83
2022-09-25T19:55:13.999Z,8.17
2022-09-25T19:58:23.251Z,7.87
2022-09-25T20:01:31.058Z,8.17
2022-09-25T20:04:40.366Z,8.27
2022-09-25T20:07:46.825Z,7.33
2022-09-25T20:10:53.452Z,8.07
2022-09-25T20:13:59.289Z,8.17
2022-09-25T20:17:10.124Z,8.33
2022-09-25T20:20:19.001Z,9.03
2022-09-25T20:23:25.387Z,9.00
2022-09-25T20:26:32.962Z,9.23
2022-09-25T20:29:39.461Z,8.50
2022-09-25T20:32:45.273Z,9.10
2022-09-25T20:35:54.755Z,8.93
2022-09-25T20:39:01.153Z,9.10
2022-09-25T20:42:08.088Z,9.40
2022-09-25T20:45:14.387Z,10.00
2022-09-25T20:48:21.906Z,9.50
2022-09-25T20:51:31.574Z,9.30
2022-09-25T20:54:40.335Z,8.90
2022-09-25T20:57:45.927Z,9.23
2022-09-25T21:00:53.553Z,11.23
2022-09-25T21:04:03.616Z,11.70
2022-09-25T21:07:16.706Z,11.27
2022-09-25T21:10:23.178Z,11.17
2022-09-25T21:13:37.053Z,12.07
2022-09-25T21:16:42.926Z,12.03
2022-09-25T21:19:50.139Z,12.27
2022-09-25T21:22:58.591Z,11.93
2022-09-25T21:26:10.334Z,11.67
2022-09-25T21:29:18.052Z,12.17
2022-09-25T21:32:24.444Z,11.40
2022-09-25T21:35:29.971Z,11.63
2022-09-25T21:38:40.061Z,10.13
2022-09-25T21:41:46.661Z,12.27
2022-09-25T21:44:53.265Z,12.63
2022-09-25T21:47:58.876Z,13.43
2022-09-25T21:51:07.968Z,13.20
2022-09-25T21:54:17.724Z,12.80
2022-09-25T21:57:25.021Z,12.03
2022-09-25T22:00:30.700Z,12.07
2022-09-25T22:03:39.274Z,13.83
2022-09-25T22:06:47.649Z,12.67
2022-09-25T22:09:56.829Z,12.67
2022-09-25T22:13:03.841Z,12.17
2022-09-25T22:16:12.883Z,11.60
2022-09-25T22:19:20.825Z,11.07
2022-09-25T22:22:27.241Z,11.13
2022-09-25T22:25:36.892Z,11.17
2022-09-25T22:28:43.692Z,11.00
2022-09-25T22:31:49.895Z,11.17
2022-09-25T22:34:56.303Z,10.97
2022-09-25T22:38:02.868Z,11.63
2022-09-25T22:41:14.072Z,12.03
2022-09-25T22:44:19.992Z,11.47
2022-09-25T22:47:26.567Z,11.30
2022-09-25T22:50:32.142Z,12.23
2022-09-25T22:53:39.170Z,11.20
2022-09-25T22:56:47.688Z,11.77
2022-09-25T22:59:54.366Z,12.20
2022-09-25T23:02:59.894Z,12.33
2022-09-25T23:06:08.429Z,12.87
2022-09-25T23:09:17.071Z,11.17
2022-09-25T23:12:30.475Z,11.70
2022-09-25T23:15:40.122Z,11.30
2022-09-25T23:18:46.518Z,10.97
2022-09-25T23:21:54.729Z,12.37
2022-09-25T23:25:01.139Z,10.80
2022-09-25T23:28:09.799Z,10.33
2022-09-25T23:31:19.298Z,11.23
2022-09-25T23:34:25.067Z,11.37
2022-09-25T23:37:32.135Z,11.07
2022-09-25T23:40:37.833Z,11.03
2022-09-25T23:43:48.365Z,11.00
2022-09-25T23:46:53.920Z,11.67
2022-09-25T23:50:04.395Z,9.60
2022-09-25T23:53:10.451Z,11.50
2022-09-25T23:56:18.924Z,10.80
2022-09-25T23:59:27.340Z,10.53
